sensor_id;sensor_type;location;lat;lon;timestamp;temperature;humidity
26107;DHT22;13866;50.748;12.630;2023-11-21T00:01:52;7.10;99.90
26107;DHT22;13866;50.748;12.630;2023-11-21T00:04:18;7.10;99.90
26107;DHT22;13866;50.748;12.630;2023-11-21T00:06:43;7.10;99.90
26107;DHT22;13866;50.748;12.630;2023-11-21T00:09:12;7.10;99.90
26107;DHT22;13866;50.748;12.630;2023-11-21T00:11:40;7.00;99.90
26107;DHT22;13866;50.748;12.630;2023-11-21T00:14:06;7.00;99.90
26107;DHT22;13866;50.748;12.630;2023-11-21T00:16:32;7.00;99.90
26107;DHT22;13866;50.748;12.630;2023-11-21T00:18:57;7.00;99.90
26107;DHT22;13866;50.748;12.630;2023-11-21T00:21:23;7.00;99.90
26107;DHT22;13866;50.748;12.630;2023-11-21T00:23:48;7.00;99.90
26107;DHT22;13866;50.748;12.630;2023-11-21T00:26:14;7.00;99.90
26107;DHT22;13866;50.748;12.630;2023-11-21T00:28:39;7.00;99.90
26107;DHT22;13866;50.748;12.630;2023-11-21T00:31:05;7.00;99.90
26107;DHT22;13866;50.748;12.630;2023-11-21T00:33:31;7.00;99.90
26107;DHT22;13866;50.748;12.630;2023-11-21T00:35:57;7.00;99.90
26107;DHT22;13866;50.748;12.630;2023-11-21T00:38:22;7.00;99.90
26107;DHT22;13866;50.748;12.630;2023-11-21T00:40:48;7.00;99.90
26107;DHT22;13866;50.748;12.630;2023-11-21T00:43:13;7.00;99.90
26107;DHT22;13866;50.748;12.630;2023-11-21T00:45:39;7.00;99.90
26107;DHT22;13866;50.748;12.630;2023-11-21T00:48:05;7.00;99.90
26107;DHT22;13866;50.748;12.630;2023-11-21T00:50:31;6.90;99.90
26107;DHT22;13866;50.748;12.630;2023-11-21T00:52:56;7.00;99.90
26107;DHT22;13866;50.748;12.630;2023-11-21T00:55:22;6.90;99.90
26107;DHT22;13866;50.748;12.630;2023-11-21T00:57:48;7.00;99.90
26107;DHT22;13866;50.748;12.630;2023-11-21T01:00:14;6.90;99.90
26107;DHT22;13866;50.748;12.630;2023-11-21T01:02:43;7.00;99.90
26107;DHT22;13866;50.748;12.630;2023-11-21T01:05:10;7.00;99.90
26107;DHT22;13866;50.748;12.630;2023-11-21T01:07:36;7.00;99.90
26107;DHT22;13866;50.748;12.630;2023-11-21T01:10:03;7.00;99.90
26107;DHT22;13866;50.748;12.630;2023-11-21T01:12:31;6.90;99.90
26107;DHT22;13866;50.748;12.630;2023-11-21T01:14:56;6.90;99.90
26107;DHT22;13866;50.748;12.630;2023-11-21T01:17:25;6.90;99.90
26107;DHT22;13866;50.748;12.630;2023-11-21T01:19:51;6.90;99.90
26107;DHT22;13866;50.748;12.630;2023-11-21T01:22:16;6.90;99.90
26107;DHT22;13866;50.748;12.630;2023-11-21T01:24:42;6.90;99.90
26107;DHT22;13866;50.748;12.630;2023-11-21T01:27:07;6.90;99.90
26107;DHT22;13866;50.748;12.630;2023-11-21T01:29:34;6.90;99.90
26107;DHT22;13866;50.748;12.630;2023-11-21T01:32:02;6.90;99.90
26107;DHT22;13866;50.748;12.630;2023-11-21T01:34:27;6.90;99.90
26107;DHT22;13866;50.748;12.630;2023-11-21T01:36:53;6.90;99.90
26107;DHT22;13866;50.748;12.630;2023-11-21T01:39:19;6.90;99.90
26107;DHT22;13866;50.748;12.630;2023-11-21T01:41:49;6.90;99.90
26107;DHT22;13866;50.748;12.630;2023-11-21T01:44:15;6.90;99.90
26107;DHT22;13866;50.748;12.630;2023-11-21T01:46:42;6.90;99.90
26107;DHT22;13866;50.748;12.630;2023-11-21T01:49:09;6.90;99.90
26107;DHT22;13866;50.748;12.630;2023-11-21T01:51:36;6.80;99.90
26107;DHT22;13866;50.748;12.630;2023-11-21T01:54:03;6.80;99.90
26107;DHT22;13866;50.748;12.630;2023-11-21T01:56:30;6.80;99.90
26107;DHT22;13866;50.748;12.630;2023-11-21T01:58:57;6.70;99.90
26107;DHT22;13866;50.748;12.630;2023-11-21T02:01:22;6.70;99.90
26107;DHT22;13866;50.748;12.630;2023-11-21T02:03:48;6.70;99.90
26107;DHT22;13866;50.748;12.630;2023-11-21T02:06:14;6.70;99.90
26107;DHT22;13866;50.748;12.630;2023-11-21T02:08:40;6.70;99.90
26107;DHT22;13866;50.748;12.630;2023-11-21T02:11:07;6.70;99.90
26107;DHT22;13866;50.748;12.630;2023-11-21T02:13:34;6.70;99.90
26107;DHT22;13866;50.748;12.630;2023-11-21T02:16:01;6.70;99.90
26107;DHT22;13866;50.748;12.630;2023-11-21T02:18:26;6.70;99.90
26107;DHT22;13866;50.748;12.630;2023-11-21T02:20:55;6.60;99.90
26107;DHT22;13866;50.748;12.630;2023-11-21T02:23:21;6.60;99.90
26107;DHT22;13866;50.748;12.630;2023-11-21T02:25:48;6.60;99.90
26107;DHT22;13866;50.748;12.630;2023-11-21T02:28:14;6.60;99.90
26107;DHT22;13866;50.748;12.630;2023-11-21T02:30:41;6.60;99.90
26107;DHT22;13866;50.748;12.630;2023-11-21T02:33:07;6.60;99.90
26107;DHT22;13866;50.748;12.630;2023-11-21T02:35:33;6.60;99.90
26107;DHT22;13866;50.748;12.630;2023-11-21T02:37:58;6.60;99.90
26107;DHT22;13866;50.748;12.630;2023-11-21T02:40:24;6.60;99.90
26107;DHT22;13866;50.748;12.630;2023-11-21T02:42:51;6.60;99.90
26107;DHT22;13866;50.748;12.630;2023-11-21T02:45:19;6.60;99.90
26107;DHT22;13866;50.748;12.630;2023-11-21T02:47:46;6.60;99.90
26107;DHT22;13866;50.748;12.630;2023-11-21T02:50:12;6.60;99.90
26107;DHT22;13866;50.748;12.630;2023-11-21T02:52:38;6.50;99.90
26107;DHT22;13866;50.748;12.630;2023-11-21T02:55:06;6.50;99.90
26107;DHT22;13866;50.748;12.630;2023-11-21T02:57:32;6.50;99.90
26107;DHT22;13866;50.748;12.630;2023-11-21T02:59:59;6.50;99.90
26107;DHT22;13866;50.748;12.630;2023-11-21T03:02:25;6.50;99.90
26107;DHT22;13866;50.748;12.630;2023-11-21T03:04:51;6.50;99.90
26107;DHT22;13866;50.748;12.630;2023-11-21T03:07:17;6.50;99.90
26107;DHT22;13866;50.748;12.630;2023-11-21T03:09:45;6.50;99.90
26107;DHT22;13866;50.748;12.630;2023-11-21T03:12:10;6.50;99.90
26107;DHT22;13866;50.748;12.630;2023-11-21T03:14:37;6.50;99.90
26107;DHT22;13866;50.748;12.630;2023-11-21T03:17:03;6.50;99.90
26107;DHT22;13866;50.748;12.630;2023-11-21T03:19:30;6.50;99.90
26107;DHT22;13866;50.748;12.630;2023-11-21T03:21:55;6.40;99.90
26107;DHT22;13866;50.748;12.630;2023-11-21T03:24:21;6.50;99.90
26107;DHT22;13866;50.748;12.630;2023-11-21T03:26:48;6.40;99.90
26107;DHT22;13866;50.748;12.630;2023-11-21T03:29:13;6.50;99.90
26107;DHT22;13866;50.748;12.630;2023-11-21T03:31:40;6.40;99.90
26107;DHT22;13866;50.748;12.630;2023-11-21T03:34:05;6.40;99.90
26107;DHT22;13866;50.748;12.630;2023-11-21T03:36:31;6.40;99.90
26107;DHT22;13866;50.748;12.630;2023-11-21T03:38:57;6.40;99.90
26107;DHT22;13866;50.748;12.630;2023-11-21T03:41:22;6.40;99.90
26107;DHT22;13866;50.748;12.630;2023-11-21T03:43:48;6.40;99.90
26107;DHT22;13866;50.748;12.630;2023-11-21T03:46:13;6.40;99.90
26107;DHT22;13866;50.748;12.630;2023-11-21T03:48:39;6.40;99.90
26107;DHT22;13866;50.748;12.630;2023-11-21T03:51:05;6.50;99.90
26107;DHT22;13866;50.748;12.630;2023-11-21T03:53:30;6.40;99.90
26107;DHT22;13866;50.748;12.630;2023-11-21T03:55:56;6.50;99.90
26107;DHT22;13866;50.748;12.630;2023-11-21T03:58:21;6.40;99.90
26107;DHT22;13866;50.748;12.630;2023-11-21T04:00:47;6.40;99.90
26107;DHT22;13866;50.748;12.630;2023-11-21T04:03:15;6.40;99.90
26107;DHT22;13866;50.748;12.630;2023-11-21T04:05:41;6.40;99.90
26107;DHT22;13866;50.748;12.630;2023-11-21T04:08:07;6.50;99.90
26107;DHT22;13866;50.748;12.630;2023-11-21T04:10:32;6.40;99.90
26107;DHT22;13866;50.748;12.630;2023-11-21T04:12:58;6.50;99.90
26107;DHT22;13866;50.748;12.630;2023-11-21T04:15:23;6.50;99.90
26107;DHT22;13866;50.748;12.630;2023-11-21T04:17:49;6.40;99.90
26107;DHT22;13866;50.748;12.630;2023-11-21T04:20:15;6.40;99.90
26107;DHT22;13866;50.748;12.630;2023-11-21T04:22:41;6.40;99.90
26107;DHT22;13866;50.748;12.630;2023-11-21T04:25:15;6.30;99.90
26107;DHT22;13866;50.748;12.630;2023-11-21T04:27:42;6.40;99.90
26107;DHT22;13866;50.748;12.630;2023-11-21T04:30:10;6.40;99.90
26107;DHT22;13866;50.748;12.630;2023-11-21T04:32:35;6.30;99.90
26107;DHT22;13866;50.748;12.630;2023-11-21T04:35:01;6.30;99.90
26107;DHT22;13866;50.748;12.630;2023-11-21T04:37:27;6.20;99.90
26107;DHT22;13866;50.748;12.630;2023-11-21T04:39:52;6.20;99.90
26107;DHT22;13866;50.748;12.630;2023-11-21T04:42:18;6.10;99.90
26107;DHT22;13866;50.748;12.630;2023-11-21T04:44:44;6.10;99.90
26107;DHT22;13866;50.748;12.630;2023-11-21T04:47:09;6.10;99.90
26107;DHT22;13866;50.748;12.630;2023-11-21T04:49:35;6.10;99.90
26107;DHT22;13866;50.748;12.630;2023-11-21T04:52:01;6.10;99.90
26107;DHT22;13866;50.748;12.630;2023-11-21T04:54:27;6.10;99.90
26107;DHT22;13866;50.748;12.630;2023-11-21T04:56:53;6.10;99.90
26107;DHT22;13866;50.748;12.630;2023-11-21T04:59:18;6.10;99.90
26107;DHT22;13866;50.748;12.630;2023-11-21T05:01:44;6.00;99.90
26107;DHT22;13866;50.748;12.630;2023-11-21T05:04:09;6.00;99.90
26107;DHT22;13866;50.748;12.630;2023-11-21T05:06:35;6.00;99.90
26107;DHT22;13866;50.748;12.630;2023-11-21T05:09:00;6.00;99.90
26107;DHT22;13866;50.748;12.630;2023-11-21T05:11:27;6.00;99.90
26107;DHT22;13866;50.748;12.630;2023-11-21T05:13:53;6.00;99.90
26107;DHT22;13866;50.748;12.630;2023-11-21T05:16:19;6.10;99.90
26107;DHT22;13866;50.748;12.630;2023-11-21T05:18:45;6.00;99.90
26107;DHT22;13866;50.748;12.630;2023-11-21T05:21:11;6.00;99.90
26107;DHT22;13866;50.748;12.630;2023-11-21T05:23:36;6.00;99.90
26107;DHT22;13866;50.748;12.630;2023-11-21T05:26:03;5.90;99.90
26107;DHT22;13866;50.748;12.630;2023-11-21T05:28:28;5.90;99.90
26107;DHT22;13866;50.748;12.630;2023-11-21T05:30:54;5.90;99.90
26107;DHT22;13866;50.748;12.630;2023-11-21T05:33:20;5.90;99.90
26107;DHT22;13866;50.748;12.630;2023-11-21T05:35:45;5.80;99.90
26107;DHT22;13866;50.748;12.630;2023-11-21T05:38:11;5.80;99.90
26107;DHT22;13866;50.748;12.630;2023-11-21T05:40:37;5.70;99.90
26107;DHT22;13866;50.748;12.630;2023-11-21T05:43:02;5.70;99.90
26107;DHT22;13866;50.748;12.630;2023-11-21T05:45:28;5.70;99.90
26107;DHT22;13866;50.748;12.630;2023-11-21T05:47:55;5.70;99.90
26107;DHT22;13866;50.748;12.630;2023-11-21T05:50:20;5.70;99.90
26107;DHT22;13866;50.748;12.630;2023-11-21T05:52:48;5.60;99.90
26107;DHT22;13866;50.748;12.630;2023-11-21T05:55:14;5.60;99.90
26107;DHT22;13866;50.748;12.630;2023-11-21T05:57:41;5.60;99.90
26107;DHT22;13866;50.748;12.630;2023-11-21T06:00:09;5.50;99.90
26107;DHT22;13866;50.748;12.630;2023-11-21T06:02:45;5.60;99.90
26107;DHT22;13866;50.748;12.630;2023-11-21T06:05:11;5.60;99.90
26107;DHT22;13866;50.748;12.630;2023-11-21T06:07:37;5.60;99.90
26107;DHT22;13866;50.748;12.630;2023-11-21T06:10:07;5.60;99.90
26107;DHT22;13866;50.748;12.630;2023-11-21T06:12:37;5.60;99.90
26107;DHT22;13866;50.748;12.630;2023-11-21T06:15:06;5.70;99.90
26107;DHT22;13866;50.748;12.630;2023-11-21T06:17:35;5.60;99.90
26107;DHT22;13866;50.748;12.630;2023-11-21T06:20:03;5.60;99.90
26107;DHT22;13866;50.748;12.630;2023-11-21T06:22:37;5.50;99.90
26107;DHT22;13866;50.748;12.630;2023-11-21T06:25:03;5.50;99.90
26107;DHT22;13866;50.748;12.630;2023-11-21T06:27:44;5.40;99.90
26107;DHT22;13866;50.748;12.630;2023-11-21T06:30:12;5.40;99.90
26107;DHT22;13866;50.748;12.630;2023-11-21T06:32:42;5.40;99.90
26107;DHT22;13866;50.748;12.630;2023-11-21T06:35:12;5.40;99.90
26107;DHT22;13866;50.748;12.630;2023-11-21T06:37:38;5.40;99.90
26107;DHT22;13866;50.748;12.630;2023-11-21T06:40:05;5.40;99.90
26107;DHT22;13866;50.748;12.630;2023-11-21T06:42:31;5.50;99.90
26107;DHT22;13866;50.748;12.630;2023-11-21T06:44:58;5.40;99.90
26107;DHT22;13866;50.748;12.630;2023-11-21T06:47:25;5.40;99.90
26107;DHT22;13866;50.748;12.630;2023-11-21T06:49:51;5.40;99.90
26107;DHT22;13866;50.748;12.630;2023-11-21T06:52:17;5.40;99.90
26107;DHT22;13866;50.748;12.630;2023-11-21T06:54:43;5.40;99.90
26107;DHT22;13866;50.748;12.630;2023-11-21T06:57:09;5.40;99.90
26107;DHT22;13866;50.748;12.630;2023-11-21T06:59:35;5.50;99.90
26107;DHT22;13866;50.748;12.630;2023-11-21T07:02:01;5.50;99.90
26107;DHT22;13866;50.748;12.630;2023-11-21T07:04:26;5.60;99.90
26107;DHT22;13866;50.748;12.630;2023-11-21T07:06:53;5.60;99.90
26107;DHT22;13866;50.748;12.630;2023-11-21T07:09:19;5.70;99.90
26107;DHT22;13866;50.748;12.630;2023-11-21T07:11:48;5.80;99.90
26107;DHT22;13866;50.748;12.630;2023-11-21T07:14:14;5.90;99.90
26107;DHT22;13866;50.748;12.630;2023-11-21T07:16:39;5.90;99.90
26107;DHT22;13866;50.748;12.630;2023-11-21T07:19:05;6.00;99.90
26107;DHT22;13866;50.748;12.630;2023-11-21T07:21:34;6.00;99.90
26107;DHT22;13866;50.748;12.630;2023-11-21T07:24:04;6.10;99.90
26107;DHT22;13866;50.748;12.630;2023-11-21T07:26:32;6.10;99.90
26107;DHT22;13866;50.748;12.630;2023-11-21T07:28:59;6.10;99.90
26107;DHT22;13866;50.748;12.630;2023-11-21T07:31:24;6.20;99.90
26107;DHT22;13866;50.748;12.630;2023-11-21T07:33:50;6.20;99.90
26107;DHT22;13866;50.748;12.630;2023-11-21T07:36:17;6.20;99.90
26107;DHT22;13866;50.748;12.630;2023-11-21T07:38:49;6.20;99.90
26107;DHT22;13866;50.748;12.630;2023-11-21T07:41:14;6.20;99.90
26107;DHT22;13866;50.748;12.630;2023-11-21T07:43:43;6.20;99.90
26107;DHT22;13866;50.748;12.630;2023-11-21T07:46:09;6.20;99.90
26107;DHT22;13866;50.748;12.630;2023-11-21T07:48:35;6.20;99.90
26107;DHT22;13866;50.748;12.630;2023-11-21T07:51:02;6.10;99.90
26107;DHT22;13866;50.748;12.630;2023-11-21T07:53:30;6.10;99.90
26107;DHT22;13866;50.748;12.630;2023-11-21T07:55:57;6.10;99.90
26107;DHT22;13866;50.748;12.630;2023-11-21T07:58:23;6.10;99.90
26107;DHT22;13866;50.748;12.630;2023-11-21T08:00:49;6.10;99.90
26107;DHT22;13866;50.748;12.630;2023-11-21T08:03:15;6.10;99.90
26107;DHT22;13866;50.748;12.630;2023-11-21T08:05:41;6.10;99.90
26107;DHT22;13866;50.748;12.630;2023-11-21T08:08:07;6.10;99.90
26107;DHT22;13866;50.748;12.630;2023-11-21T08:10:33;6.10;99.90
26107;DHT22;13866;50.748;12.630;2023-11-21T08:12:58;6.10;99.90
26107;DHT22;13866;50.748;12.630;2023-11-21T08:15:24;6.10;99.90
26107;DHT22;13866;50.748;12.630;2023-11-21T08:17:50;6.10;99.90
26107;DHT22;13866;50.748;12.630;2023-11-21T08:20:16;6.10;99.90
26107;DHT22;13866;50.748;12.630;2023-11-21T08:22:42;6.20;99.90
26107;DHT22;13866;50.748;12.630;2023-11-21T08:25:08;6.20;99.90
26107;DHT22;13866;50.748;12.630;2023-11-21T08:27:34;6.20;99.90
26107;DHT22;13866;50.748;12.630;2023-11-21T08:30:00;6.30;99.90
26107;DHT22;13866;50.748;12.630;2023-11-21T08:32:26;6.30;99.90
26107;DHT22;13866;50.748;12.630;2023-11-21T08:34:51;6.30;99.90
26107;DHT22;13866;50.748;12.630;2023-11-21T08:37:17;6.30;99.90
26107;DHT22;13866;50.748;12.630;2023-11-21T08:39:44;6.30;99.90
26107;DHT22;13866;50.748;12.630;2023-11-21T08:42:09;6.20;99.90
26107;DHT22;13866;50.748;12.630;2023-11-21T08:44:35;6.30;99.90
26107;DHT22;13866;50.748;12.630;2023-11-21T08:47:01;6.30;99.90
26107;DHT22;13866;50.748;12.630;2023-11-21T08:49:27;6.20;99.90
26107;DHT22;13866;50.748;12.630;2023-11-21T08:51:54;6.20;99.90
26107;DHT22;13866;50.748;12.630;2023-11-21T08:54:21;6.20;99.90
26107;DHT22;13866;50.748;12.630;2023-11-21T08:56:46;6.20;99.90
26107;DHT22;13866;50.748;12.630;2023-11-21T08:59:12;6.20;99.90
26107;DHT22;13866;50.748;12.630;2023-11-21T09:01:40;6.30;99.90
26107;DHT22;13866;50.748;12.630;2023-11-21T09:04:06;6.20;99.90
26107;DHT22;13866;50.748;12.630;2023-11-21T09:06:31;6.30;99.90
26107;DHT22;13866;50.748;12.630;2023-11-21T09:08:57;6.30;99.90
26107;DHT22;13866;50.748;12.630;2023-11-21T09:11:22;6.30;99.90
26107;DHT22;13866;50.748;12.630;2023-11-21T09:13:50;6.30;99.90
26107;DHT22;13866;50.748;12.630;2023-11-21T09:16:16;6.30;99.90
26107;DHT22;13866;50.748;12.630;2023-11-21T09:18:42;6.30;99.90
26107;DHT22;13866;50.748;12.630;2023-11-21T09:21:08;6.30;99.90
26107;DHT22;13866;50.748;12.630;2023-11-21T09:23:35;6.30;99.90
26107;DHT22;13866;50.748;12.630;2023-11-21T09:26:00;6.30;99.90
26107;DHT22;13866;50.748;12.630;2023-11-21T09:28:27;6.30;99.90
26107;DHT22;13866;50.748;12.630;2023-11-21T09:30:53;6.30;99.90
26107;DHT22;13866;50.748;12.630;2023-11-21T09:33:19;6.30;99.90
26107;DHT22;13866;50.748;12.630;2023-11-21T09:35:44;6.30;99.90
26107;DHT22;13866;50.748;12.630;2023-11-21T09:38:10;6.30;99.90
26107;DHT22;13866;50.748;12.630;2023-11-21T09:40:37;6.30;99.90
26107;DHT22;13866;50.748;12.630;2023-11-21T09:43:06;6.40;99.90
26107;DHT22;13866;50.748;12.630;2023-11-21T09:45:35;6.40;99.90
26107;DHT22;13866;50.748;12.630;2023-11-21T09:48:01;6.40;99.90
26107;DHT22;13866;50.748;12.630;2023-11-21T09:50:28;6.40;99.90
26107;DHT22;13866;50.748;12.630;2023-11-21T09:53:03;6.40;99.90
26107;DHT22;13866;50.748;12.630;2023-11-21T09:55:37;6.40;99.90
26107;DHT22;13866;50.748;12.630;2023-11-21T09:58:04;6.40;99.90
26107;DHT22;13866;50.748;12.630;2023-11-21T10:00:33;6.40;99.90
26107;DHT22;13866;50.748;12.630;2023-11-21T10:02:59;6.40;99.90
26107;DHT22;13866;50.748;12.630;2023-11-21T10:05:25;6.30;99.90
26107;DHT22;13866;50.748;12.630;2023-11-21T10:07:51;6.40;99.90
26107;DHT22;13866;50.748;12.630;2023-11-21T10:10:19;6.40;99.90
26107;DHT22;13866;50.748;12.630;2023-11-21T10:12:55;6.40;99.90
26107;DHT22;13866;50.748;12.630;2023-11-21T10:15:22;6.40;99.90
26107;DHT22;13866;50.748;12.630;2023-11-21T10:17:49;6.40;99.90
26107;DHT22;13866;50.748;12.630;2023-11-21T10:20:16;6.40;99.90
26107;DHT22;13866;50.748;12.630;2023-11-21T10:22:43;6.40;99.90
26107;DHT22;13866;50.748;12.630;2023-11-21T10:25:09;6.40;99.90
26107;DHT22;13866;50.748;12.630;2023-11-21T10:27:37;6.40;99.90
26107;DHT22;13866;50.748;12.630;2023-11-21T10:30:05;6.40;99.90
26107;DHT22;13866;50.748;12.630;2023-11-21T10:32:30;6.40;99.90
26107;DHT22;13866;50.748;12.630;2023-11-21T10:34:58;6.40;99.90
26107;DHT22;13866;50.748;12.630;2023-11-21T10:37:25;6.40;99.90
26107;DHT22;13866;50.748;12.630;2023-11-21T10:39:57;6.40;99.90
26107;DHT22;13866;50.748;12.630;2023-11-21T10:42:24;6.40;99.90
26107;DHT22;13866;50.748;12.630;2023-11-21T10:44:49;6.40;99.90
26107;DHT22;13866;50.748;12.630;2023-11-21T10:47:16;6.40;99.90
26107;DHT22;13866;50.748;12.630;2023-11-21T10:49:44;6.40;99.90
26107;DHT22;13866;50.748;12.630;2023-11-21T10:52:13;6.40;99.90
26107;DHT22;13866;50.748;12.630;2023-11-21T10:54:43;6.30;99.90
26107;DHT22;13866;50.748;12.630;2023-11-21T10:57:10;6.30;99.90
26107;DHT22;13866;50.748;12.630;2023-11-21T10:59:36;6.30;99.90
26107;DHT22;13866;50.748;12.630;2023-11-21T11:02:13;6.30;99.90
26107;DHT22;13866;50.748;12.630;2023-11-21T11:04:48;6.30;99.90
26107;DHT22;13866;50.748;12.630;2023-11-21T11:07:14;6.20;99.90
26107;DHT22;13866;50.748;12.630;2023-11-21T11:09:41;6.20;99.90
26107;DHT22;13866;50.748;12.630;2023-11-21T11:12:08;6.20;99.90
26107;DHT22;13866;50.748;12.630;2023-11-21T11:14:35;6.10;99.90
26107;DHT22;13866;50.748;12.630;2023-11-21T11:17:01;6.10;99.90
26107;DHT22;13866;50.748;12.630;2023-11-21T11:19:28;6.20;99.90
26107;DHT22;13866;50.748;12.630;2023-11-21T11:21:59;6.20;99.90
26107;DHT22;13866;50.748;12.630;2023-11-21T11:25:14;6.20;99.90
26107;DHT22;13866;50.748;12.630;2023-11-21T11:36:02;6.20;99.90
26107;DHT22;13866;50.748;12.630;2023-11-21T11:38:32;6.20;99.90
26107;DHT22;13866;50.748;12.630;2023-11-21T11:41:03;6.20;99.90
26107;DHT22;13866;50.748;12.630;2023-11-21T11:43:29;6.20;99.90
26107;DHT22;13866;50.748;12.630;2023-11-21T11:45:59;6.20;99.90
26107;DHT22;13866;50.748;12.630;2023-11-21T11:48:25;6.20;99.90
26107;DHT22;13866;50.748;12.630;2023-11-21T11:51:10;6.20;99.90
26107;DHT22;13866;50.748;12.630;2023-11-21T11:53:46;6.20;99.90
26107;DHT22;13866;50.748;12.630;2023-11-21T11:56:30;6.20;99.90
26107;DHT22;13866;50.748;12.630;2023-11-21T11:58:58;6.10;99.90
26107;DHT22;13866;50.748;12.630;2023-11-21T12:01:26;6.00;99.90
26107;DHT22;13866;50.748;12.630;2023-11-21T12:04:22;6.00;99.90
26107;DHT22;13866;50.748;12.630;2023-11-21T12:06:51;6.00;99.90
26107;DHT22;13866;50.748;12.630;2023-11-21T12:09:22;5.90;99.90
26107;DHT22;13866;50.748;12.630;2023-11-21T12:11:51;5.90;99.90
26107;DHT22;13866;50.748;12.630;2023-11-21T12:14:17;5.80;99.90
26107;DHT22;13866;50.748;12.630;2023-11-21T12:16:43;5.80;99.90
26107;DHT22;13866;50.748;12.630;2023-11-21T12:19:10;5.70;99.90
26107;DHT22;13866;50.748;12.630;2023-11-21T12:21:36;5.70;99.90
26107;DHT22;13866;50.748;12.630;2023-11-21T12:24:02;5.70;99.90
26107;DHT22;13866;50.748;12.630;2023-11-21T12:26:28;5.70;99.90
26107;DHT22;13866;50.748;12.630;2023-11-21T12:28:54;5.70;99.90
26107;DHT22;13866;50.748;12.630;2023-11-21T12:31:23;5.60;99.90
26107;DHT22;13866;50.748;12.630;2023-11-21T12:33:50;5.60;99.90
26107;DHT22;13866;50.748;12.630;2023-11-21T12:36:16;5.60;99.90
26107;DHT22;13866;50.748;12.630;2023-11-21T12:38:41;5.70;99.90
26107;DHT22;13866;50.748;12.630;2023-11-21T12:41:07;5.50;99.90
26107;DHT22;13866;50.748;12.630;2023-11-21T12:43:33;5.50;99.90
26107;DHT22;13866;50.748;12.630;2023-11-21T12:46:13;5.50;99.90
26107;DHT22;13866;50.748;12.630;2023-11-21T12:48:39;5.40;99.90
26107;DHT22;13866;50.748;12.630;2023-11-21T12:51:08;5.40;99.90
26107;DHT22;13866;50.748;12.630;2023-11-21T12:53:35;5.40;99.90
26107;DHT22;13866;50.748;12.630;2023-11-21T12:56:09;5.40;99.90
26107;DHT22;13866;50.748;12.630;2023-11-21T12:58:36;5.30;99.90
26107;DHT22;13866;50.748;12.630;2023-11-21T13:01:02;5.30;99.90
26107;DHT22;13866;50.748;12.630;2023-11-21T13:03:29;5.30;99.90
26107;DHT22;13866;50.748;12.630;2023-11-21T13:05:55;5.30;99.90
26107;DHT22;13866;50.748;12.630;2023-11-21T13:08:24;5.30;99.90
26107;DHT22;13866;50.748;12.630;2023-11-21T13:10:52;5.30;99.90
26107;DHT22;13866;50.748;12.630;2023-11-21T13:13:19;5.20;99.90
26107;DHT22;13866;50.748;12.630;2023-11-21T13:15:50;5.20;99.90
26107;DHT22;13866;50.748;12.630;2023-11-21T13:18:16;5.20;99.90
26107;DHT22;13866;50.748;12.630;2023-11-21T13:20:42;5.20;99.90
26107;DHT22;13866;50.748;12.630;2023-11-21T13:23:10;5.20;99.90
26107;DHT22;13866;50.748;12.630;2023-11-21T13:25:42;5.20;99.90
26107;DHT22;13866;50.748;12.630;2023-11-21T13:28:08;5.10;99.90
26107;DHT22;13866;50.748;12.630;2023-11-21T13:30:35;5.10;99.90
26107;DHT22;13866;50.748;12.630;2023-11-21T13:33:02;5.10;99.90
26107;DHT22;13866;50.748;12.630;2023-11-21T13:35:28;5.10;99.90
26107;DHT22;13866;50.748;12.630;2023-11-21T13:38:09;5.10;99.90
26107;DHT22;13866;50.748;12.630;2023-11-21T13:40:36;5.10;99.90
26107;DHT22;13866;50.748;12.630;2023-11-21T13:43:09;5.20;99.90
26107;DHT22;13866;50.748;12.630;2023-11-21T13:45:44;5.20;99.90
26107;DHT22;13866;50.748;12.630;2023-11-21T13:48:12;5.10;99.90
26107;DHT22;13866;50.748;12.630;2023-11-21T13:50:46;5.10;99.90
26107;DHT22;13866;50.748;12.630;2023-11-21T13:53:21;5.10;99.90
26107;DHT22;13866;50.748;12.630;2023-11-21T13:55:51;5.10;99.90
26107;DHT22;13866;50.748;12.630;2023-11-21T13:58:20;5.10;99.90
26107;DHT22;13866;50.748;12.630;2023-11-21T14:00:50;5.10;99.90
26107;DHT22;13866;50.748;12.630;2023-11-21T14:03:22;5.10;99.90
26107;DHT22;13866;50.748;12.630;2023-11-21T14:05:51;5.10;99.90
26107;DHT22;13866;50.748;12.630;2023-11-21T14:08:21;5.10;99.90
26107;DHT22;13866;50.748;12.630;2023-11-21T14:10:50;5.10;99.90
26107;DHT22;13866;50.748;12.630;2023-11-21T14:13:18;5.10;99.90
26107;DHT22;13866;50.748;12.630;2023-11-21T14:15:45;5.10;99.90
26107;DHT22;13866;50.748;12.630;2023-11-21T14:18:12;5.00;99.90
26107;DHT22;13866;50.748;12.630;2023-11-21T14:20:42;4.90;99.90
26107;DHT22;13866;50.748;12.630;2023-11-21T14:23:09;4.90;99.90
26107;DHT22;13866;50.748;12.630;2023-11-21T14:25:36;4.80;99.90
26107;DHT22;13866;50.748;12.630;2023-11-21T14:28:03;4.80;99.90
26107;DHT22;13866;50.748;12.630;2023-11-21T14:30:29;4.80;99.90
26107;DHT22;13866;50.748;12.630;2023-11-21T14:32:58;4.80;99.90
26107;DHT22;13866;50.748;12.630;2023-11-21T14:35:23;4.80;99.90
26107;DHT22;13866;50.748;12.630;2023-11-21T14:37:49;4.70;99.90
26107;DHT22;13866;50.748;12.630;2023-11-21T14:40:14;4.60;99.90
26107;DHT22;13866;50.748;12.630;2023-11-21T14:42:44;4.60;99.90
26107;DHT22;13866;50.748;12.630;2023-11-21T14:45:13;4.60;99.90
26107;DHT22;13866;50.748;12.630;2023-11-21T14:47:41;4.50;99.90
26107;DHT22;13866;50.748;12.630;2023-11-21T14:50:12;4.30;99.90
26107;DHT22;13866;50.748;12.630;2023-11-21T14:52:57;4.10;99.90
26107;DHT22;13866;50.748;12.630;2023-11-21T14:55:25;4.00;99.90
26107;DHT22;13866;50.748;12.630;2023-11-21T14:58:18;3.90;99.90
26107;DHT22;13866;50.748;12.630;2023-11-21T15:00:53;3.90;99.90
26107;DHT22;13866;50.748;12.630;2023-11-21T15:03:23;3.70;99.90
26107;DHT22;13866;50.748;12.630;2023-11-21T15:06:02;3.70;99.90
26107;DHT22;13866;50.748;12.630;2023-11-21T15:08:58;3.60;99.90
26107;DHT22;13866;50.748;12.630;2023-11-21T15:11:36;3.40;99.90
26107;DHT22;13866;50.748;12.630;2023-11-21T15:14:03;3.40;99.90
26107;DHT22;13866;50.748;12.630;2023-11-21T15:16:33;3.30;99.90
26107;DHT22;13866;50.748;12.630;2023-11-21T15:18:58;3.30;99.90
26107;DHT22;13866;50.748;12.630;2023-11-21T15:21:24;3.30;99.90
26107;DHT22;13866;50.748;12.630;2023-11-21T15:23:50;3.20;99.90
26107;DHT22;13866;50.748;12.630;2023-11-21T15:26:16;3.10;99.90
26107;DHT22;13866;50.748;12.630;2023-11-21T15:28:42;3.10;99.90
26107;DHT22;13866;50.748;12.630;2023-11-21T15:31:07;3.10;99.90
26107;DHT22;13866;50.748;12.630;2023-11-21T15:33:34;3.10;99.90
26107;DHT22;13866;50.748;12.630;2023-11-21T15:36:02;3.10;99.90
26107;DHT22;13866;50.748;12.630;2023-11-21T15:38:29;3.10;99.90
26107;DHT22;13866;50.748;12.630;2023-11-21T15:40:54;3.10;99.90